createdAt,value
2023-02-11T00:02:27.960Z,6.88
2023-02-11T00:06:00.584Z,5.57
2023-02-11T00:09:26.343Z,5.05
2023-02-11T00:12:53.123Z,5.96
2023-02-11T00:16:21.089Z,6.41
2023-02-11T00:19:50.426Z,6.80
2023-02-11T00:23:16.214Z,6.94
2023-02-11T00:26:42.861Z,7.01
2023-02-11T00:30:09.621Z,6.92
2023-02-11T00:33:35.493Z,6.64
2023-02-11T00:37:01.062Z,6.99
2023-02-11T00:40:26.887Z,6.92
2023-02-11T00:43:53.118Z,5.63
2023-02-11T00:47:19.046Z,4.96
2023-02-11T00:50:44.798Z,5.92
2023-02-11T00:54:11.133Z,6.52
2023-02-11T00:57:38.110Z,6.86
2023-02-11T01:01:03.802Z,7.06
2023-02-11T01:04:29.797Z,6.12
2023-02-11T01:07:55.616Z,5.35
2023-02-11T01:11:21.822Z,6.05
2023-02-11T01:14:47.604Z,6.51
2023-02-11T01:18:15.502Z,6.86
2023-02-11T01:21:45.364Z,6.95
2023-02-11T01:25:11.631Z,5.88
2023-02-11T01:28:37.692Z,4.97
2023-02-11T01:32:03.317Z,5.75
2023-02-11T01:35:29.312Z,6.48
2023-02-11T01:38:56.196Z,6.81
2023-02-11T01:42:24.145Z,6.28
2023-02-11T01:46:01.903Z,5.08
2023-02-11T01:49:32.928Z,5.68
2023-02-11T01:53:20.058Z,6.26
2023-02-11T01:57:05.505Z,6.34
2023-02-11T02:00:34.573Z,6.82
2023-02-11T02:04:03.723Z,6.44
2023-02-11T02:07:34.379Z,5.27
2023-02-11T02:11:01.047Z,5.92
2023-02-11T02:14:27.446Z,6.73
2023-02-11T02:18:02.701Z,6.72
2023-02-11T02:21:50.835Z,5.46
2023-02-11T02:25:31.967Z,5.42
2023-02-11T02:29:13.985Z,6.16
2023-02-11T02:32:44.270Z,6.65
2023-02-11T02:36:16.082Z,5.79
2023-02-11T02:39:41.861Z,5.17
2023-02-11T02:43:09.972Z,5.82
2023-02-11T02:46:37.332Z,6.17
2023-02-11T02:50:03.622Z,6.41
2023-02-11T02:53:33.428Z,6.73
2023-02-11T02:57:02.865Z,6.09
2023-02-11T03:00:34.769Z,4.99
2023-02-11T03:04:04.557Z,5.66
2023-02-11T03:07:37.030Z,5.89
2023-02-11T03:11:04.421Z,6.34
2023-02-11T03:14:31.790Z,6.36
2023-02-11T03:18:00.180Z,5.97
2023-02-11T03:21:26.456Z,6.43
2023-02-11T03:24:52.263Z,6.30
2023-02-11T03:28:23.540Z,5.28
2023-02-11T03:31:55.576Z,5.33
2023-02-11T03:35:24.439Z,6.02
2023-02-11T03:38:52.813Z,6.32
2023-02-11T03:42:20.348Z,6.41
2023-02-11T03:45:47.091Z,6.34
2023-02-11T03:49:14.709Z,5.19
2023-02-11T03:52:40.411Z,5.49
2023-02-11T03:56:07.840Z,6.39
2023-02-11T03:59:33.420Z,6.57
2023-02-11T04:02:59.389Z,6.51
2023-02-11T04:06:25.327Z,6.32
2023-02-11T04:09:51.955Z,5.16
2023-02-11T04:13:18.628Z,5.55
2023-02-11T04:16:44.544Z,5.85
2023-02-11T04:20:11.461Z,5.97
2023-02-11T04:23:37.339Z,6.16
2023-02-11T04:27:03.279Z,6.37
2023-02-11T04:30:29.072Z,6.80
2023-02-11T04:33:55.747Z,5.86
2023-02-11T04:37:21.356Z,5.21
2023-02-11T04:40:47.375Z,5.79
2023-02-11T04:44:13.224Z,5.70
2023-02-11T04:47:38.884Z,6.06
2023-02-11T04:51:04.725Z,6.13
2023-02-11T04:54:30.575Z,6.37
2023-02-11T04:57:56.412Z,6.58
2023-02-11T05:01:22.249Z,6.41
2023-02-11T05:04:48.045Z,6.20
2023-02-11T05:08:14.167Z,6.61
2023-02-11T05:11:40.521Z,6.79
2023-02-11T05:15:07.135Z,6.68
2023-02-11T05:18:32.855Z,6.32
2023-02-11T05:22:03.138Z,6.25
2023-02-11T05:25:29.515Z,6.28
2023-02-11T05:28:55.296Z,6.48
2023-02-11T05:32:23.258Z,6.76
2023-02-11T05:35:49.426Z,6.80
2023-02-11T05:39:15.665Z,7.05
2023-02-11T05:42:41.474Z,6.84
2023-02-11T05:46:07.660Z,6.94
2023-02-11T05:49:33.449Z,7.15
2023-02-11T05:52:59.134Z,6.65
2023-02-11T05:56:25.096Z,6.89
2023-02-11T05:59:50.954Z,7.15
2023-02-11T06:03:17.815Z,7.22
2023-02-11T06:06:43.863Z,6.91
2023-02-11T06:10:00.856Z,6.74
2023-02-11T06:13:26.799Z,6.79
2023-02-11T06:16:52.612Z,6.81
2023-02-11T06:20:19.430Z,7.06
2023-02-11T06:23:45.040Z,7.28
2023-02-11T06:27:11.070Z,6.70
2023-02-11T06:30:37.086Z,7.06
2023-02-11T06:34:03.134Z,6.92
2023-02-11T06:37:29.310Z,6.83
2023-02-11T06:40:55.059Z,7.25
2023-02-11T06:44:20.629Z,7.22
2023-02-11T06:47:46.590Z,7.42
2023-02-11T06:51:13.195Z,7.02
2023-02-11T06:54:39.275Z,7.04
2023-02-11T06:58:04.923Z,6.99
2023-02-11T07:01:30.917Z,7.19
2023-02-11T07:04:56.956Z,6.98
2023-02-11T07:08:23.584Z,6.92
2023-02-11T07:11:49.203Z,7.01
2023-02-11T07:15:14.964Z,7.07
2023-02-11T07:18:40.871Z,7.07
2023-02-11T07:22:06.673Z,7.06
2023-02-11T07:25:52.973Z,7.24
2023-02-11T07:29:18.839Z,7.46
2023-02-11T07:32:44.696Z,7.51
2023-02-11T07:36:12.637Z,7.50
2023-02-11T07:39:38.402Z,7.69
2023-02-11T07:43:04.165Z,7.22
2023-02-11T07:46:30.104Z,7.29
2023-02-11T07:49:56.737Z,7.35
2023-02-11T07:53:25.623Z,7.04
2023-02-11T07:56:51.338Z,7.34
2023-02-11T08:00:20.827Z,7.39
2023-02-11T08:03:47.026Z,7.08
2023-02-11T08:07:16.116Z,6.80
2023-02-11T08:10:41.761Z,6.75
2023-02-11T08:14:07.750Z,7.01
2023-02-11T08:17:53.743Z,6.72
2023-02-11T08:21:20.611Z,6.89
2023-02-11T08:24:46.447Z,6.93
2023-02-11T08:28:12.267Z,6.82
2023-02-11T08:31:39.393Z,7.36
2023-02-11T08:35:07.978Z,7.49
2023-02-11T08:38:33.679Z,7.63
2023-02-11T08:41:59.749Z,7.26
2023-02-11T08:45:25.455Z,7.12
2023-02-11T08:48:51.438Z,7.41
2023-02-11T08:52:17.393Z,7.15
2023-02-11T08:55:49.065Z,6.75
2023-02-11T08:59:15.498Z,7.01
2023-02-11T09:02:33.995Z,7.48
2023-02-11T09:06:01.182Z,7.37
2023-02-11T09:09:26.874Z,7.29
2023-02-11T09:12:52.646Z,7.71
2023-02-11T09:16:20.981Z,7.51
2023-02-11T09:19:46.730Z,7.58
2023-02-11T09:23:12.699Z,7.69
2023-02-11T09:26:40.466Z,7.90
2023-02-11T09:30:06.854Z,7.86
2023-02-11T09:33:32.959Z,8.32
2023-02-11T09:36:58.524Z,8.15
2023-02-11T09:40:24.530Z,8.60
2023-02-11T09:43:52.960Z,8.76
2023-02-11T09:47:25.830Z,8.68
2023-02-11T09:50:52.835Z,8.64
2023-02-11T09:54:23.120Z,8.95
2023-02-11T09:57:48.790Z,8.46
2023-02-11T10:01:22.920Z,8.32
2023-02-11T10:05:01.840Z,8.07
2023-02-11T10:08:31.730Z,8.22
2023-02-11T10:12:04.202Z,8.03
2023-02-11T10:15:39.092Z,8.52
2023-02-11T10:19:13.921Z,8.83
2023-02-11T10:22:42.452Z,8.84
2023-02-11T10:26:12.972Z,8.85
2023-02-11T10:29:42.088Z,8.67
2023-02-11T10:33:12.612Z,8.73
2023-02-11T10:36:38.786Z,8.44
2023-02-11T10:40:14.956Z,8.69
2023-02-11T10:43:43.417Z,8.66
2023-02-11T10:47:12.347Z,8.95
2023-02-11T10:50:38.410Z,8.55
2023-02-11T10:54:21.394Z,8.41
2023-02-11T10:57:53.940Z,8.65
2023-02-11T11:01:24.625Z,8.83
2023-02-11T11:04:50.860Z,8.84
2023-02-11T11:08:18.561Z,8.66
2023-02-11T11:11:52.161Z,9.07
2023-02-11T11:15:21.732Z,8.96
2023-02-11T11:18:37.485Z,9.02
2023-02-11T11:22:03.214Z,8.74
2023-02-11T11:25:30.451Z,8.74
2023-02-11T11:28:58.912Z,8.40
2023-02-11T11:32:26.717Z,8.61
2023-02-11T11:36:01.610Z,9.06
2023-02-11T11:39:28.924Z,8.96
2023-02-11T11:43:09.123Z,8.40
2023-02-11T11:46:36.464Z,7.63
2023-02-11T11:50:18.973Z,7.92
2023-02-11T11:53:49.294Z,7.90
2023-02-11T11:57:13.536Z,7.59
2023-02-11T12:00:45.611Z,7.90
2023-02-11T12:04:20.580Z,8.01
2023-02-11T12:07:54.965Z,7.72
2023-02-11T12:11:27.329Z,7.61
2023-02-11T12:14:59.920Z,7.44
2023-02-11T12:18:47.250Z,7.27
2023-02-11T12:22:14.078Z,7.43
2023-02-11T12:25:30.905Z,7.42
2023-02-11T12:28:44.501Z,7.29
2023-02-11T12:32:16.153Z,7.09
2023-02-11T12:35:33.596Z,7.36
2023-02-11T12:38:48.187Z,7.90
2023-02-11T12:42:41.999Z,7.55
2023-02-11T12:46:01.540Z,7.36
2023-02-11T12:49:18.614Z,7.94
2023-02-11T12:52:36.994Z,7.78
2023-02-11T12:56:05.526Z,7.71
2023-02-11T12:59:45.144Z,8.03
2023-02-11T13:02:56.776Z,7.91
2023-02-11T13:06:04.711Z,7.89
2023-02-11T13:09:25.149Z,7.74
2023-02-11T13:13:01.275Z,7.70
2023-02-11T13:16:15.044Z,7.73
2023-02-11T13:19:27.631Z,7.84
2023-02-11T13:22:34.630Z,7.76
2023-02-11T13:25:45.229Z,8.08
2023-02-11T13:28:55.368Z,8.05
2023-02-11T13:32:08.875Z,8.22
2023-02-11T13:35:31.790Z,7.87
2023-02-11T13:38:37.746Z,8.19
2023-02-11T13:41:51.580Z,8.08
2023-02-11T13:45:02.377Z,7.87
2023-02-11T13:48:24.243Z,7.88
2023-02-11T13:51:38.938Z,7.98
2023-02-11T13:55:00.755Z,7.87
2023-02-11T13:58:20.203Z,7.90
2023-02-11T14:02:13.302Z,7.74
2023-02-11T14:05:44.634Z,8.08
2023-02-11T14:09:08.976Z,8.30
2023-02-11T14:12:40.957Z,7.87
2023-02-11T14:16:08.072Z,7.72
2023-02-11T14:19:31.689Z,8.00
2023-02-11T14:22:45.544Z,7.98
2023-02-11T14:26:27.862Z,7.99
2023-02-11T14:29:39.475Z,8.08
2023-02-11T14:32:53.365Z,7.80
2023-02-11T14:36:06.775Z,8.07
2023-02-11T14:39:19.490Z,7.68
2023-02-11T14:42:35.889Z,7.80
2023-02-11T14:46:02.457Z,7.77
2023-02-11T14:49:19.463Z,7.73
2023-02-11T14:52:45.409Z,8.12
2023-02-11T14:55:52.534Z,8.12
2023-02-11T14:59:01.696Z,7.99
2023-02-11T15:02:23.819Z,8.06
2023-02-11T15:05:30.051Z,8.00
2023-02-11T15:09:00.886Z,8.24
2023-02-11T15:12:27.200Z,8.51
2023-02-11T15:15:55.807Z,8.87
2023-02-11T15:19:24.395Z,8.90
2023-02-11T15:22:54.270Z,9.06
2023-02-11T15:26:22.677Z,8.71
2023-02-11T15:29:40.168Z,8.67
2023-02-11T15:33:00.490Z,9.01
2023-02-11T15:36:16.713Z,9.25
2023-02-11T15:39:43.191Z,9.15
2023-02-11T15:43:10.236Z,9.37
2023-02-11T15:46:38.962Z,8.86
2023-02-11T15:49:54.758Z,8.81
2023-02-11T15:53:07.043Z,8.63
2023-02-11T15:56:20.438Z,8.34
2023-02-11T15:59:49.395Z,8.41
2023-02-11T16:02:57.579Z,9.11
2023-02-11T16:06:20.071Z,8.81
2023-02-11T16:09:34.050Z,8.82
2023-02-11T16:12:39.452Z,9.28
2023-02-11T16:15:47.548Z,9.01
2023-02-11T16:19:05.975Z,9.21
2023-02-11T16:22:12.994Z,8.71
2023-02-11T16:25:19.883Z,8.68
2023-02-11T16:28:25.624Z,9.17
2023-02-11T16:31:37.901Z,9.28
2023-02-11T16:34:43.501Z,9.90
2023-02-11T16:37:49.096Z,10.05
2023-02-11T16:40:56.741Z,10.23
2023-02-11T16:44:02.414Z,9.76
2023-02-11T16:47:08.741Z,9.27
2023-02-11T16:50:21.809Z,9.29
2023-02-11T16:53:27.337Z,9.51
2023-02-11T16:56:35.916Z,9.03
2023-02-11T16:59:41.391Z,9.05
2023-02-11T17:02:47.017Z,9.34
2023-02-11T17:06:03.272Z,9.09
2023-02-11T17:09:10.897Z,9.04
2023-02-11T17:12:16.554Z,9.39
2023-02-11T17:15:22.139Z,9.39
2023-02-11T17:18:28.157Z,9.41
2023-02-11T17:21:33.614Z,9.56
2023-02-11T17:24:49.147Z,9.44
2023-02-11T17:27:54.930Z,9.52
2023-02-11T17:31:02.767Z,9.52
2023-02-11T17:34:19.192Z,9.59
2023-02-11T17:37:24.782Z,9.65
2023-02-11T17:40:30.485Z,9.39
2023-02-11T17:43:35.982Z,9.10
2023-02-11T17:46:44.953Z,9.27
2023-02-11T17:49:50.477Z,9.49
2023-02-11T17:52:55.997Z,9.52
2023-02-11T17:56:06.391Z,9.70
2023-02-11T17:59:13.295Z,9.44
2023-02-11T18:02:21.965Z,9.41
2023-02-11T18:05:34.426Z,9.42
2023-02-11T18:08:57.569Z,9.20
2023-02-11T18:12:05.920Z,9.30
2023-02-11T18:15:14.457Z,8.99
2023-02-11T18:18:40.066Z,9.41
2023-02-11T18:21:48.883Z,9.33
2023-02-11T18:24:56.943Z,9.53
2023-02-11T18:28:12.415Z,9.27
2023-02-11T18:31:18.495Z,9.36
2023-02-11T18:34:27.191Z,9.25
2023-02-11T18:37:32.693Z,9.26
2023-02-11T18:40:41.683Z,9.34
2023-02-11T18:44:07.432Z,8.81
2023-02-11T18:47:15.735Z,8.81
2023-02-11T18:50:43.344Z,9.06
2023-02-11T18:53:59.806Z,8.75
2023-02-11T18:57:05.186Z,9.07
2023-02-11T19:00:14.151Z,8.83
2023-02-11T19:03:32.164Z,8.96
2023-02-11T19:06:38.698Z,8.94
2023-02-11T19:09:44.633Z,8.82
2023-02-11T19:13:10.999Z,8.91
2023-02-11T19:16:20.036Z,9.06
2023-02-11T19:19:28.373Z,8.62
2023-02-11T19:22:33.993Z,8.70
2023-02-11T19:25:59.681Z,9.05
2023-02-11T19:29:05.133Z,8.71
2023-02-11T19:32:13.330Z,8.76
2023-02-11T19:35:30.089Z,9.12
2023-02-11T19:38:35.642Z,9.06
2023-02-11T19:41:43.964Z,9.07
2023-02-11T19:44:49.680Z,9.38
2023-02-11T19:47:58.641Z,9.68
2023-02-11T19:51:12.823Z,9.77
2023-02-11T19:54:30.284Z,9.79
2023-02-11T19:57:37.150Z,9.72
2023-02-11T20:00:43.113Z,9.71
2023-02-11T20:03:58.553Z,9.80
2023-02-11T20:07:04.289Z,9.35
2023-02-11T20:10:22.619Z,9.33
2023-02-11T20:13:29.774Z,9.56
2023-02-11T20:16:49.863Z,9.88
2023-02-11T20:19:55.803Z,9.64
2023-02-11T20:23:01.196Z,9.94
2023-02-11T20:26:11.182Z,10.24
2023-02-11T20:29:16.900Z,10.09
2023-02-11T20:32:42.461Z,10.20
2023-02-11T20:36:00.101Z,10.28
2023-02-11T20:39:18.716Z,10.21
2023-02-11T20:42:44.511Z,10.32
2023-02-11T20:46:10.560Z,10.38
2023-02-11T20:49:20.215Z,10.08
2023-02-11T20:52:39.805Z,9.96
2023-02-11T20:56:06.685Z,9.83
2023-02-11T20:59:21.022Z,10.04
2023-02-11T21:02:30.421Z,10.36
2023-02-11T21:05:36.168Z,10.50
2023-02-11T21:08:52.675Z,10.42
2023-02-11T21:12:18.275Z,10.03
2023-02-11T21:15:33.836Z,10.23
2023-02-11T21:18:50.017Z,9.69
2023-02-11T21:21:57.515Z,9.36
2023-02-11T21:25:09.048Z,9.19
2023-02-11T21:28:27.355Z,8.87
2023-02-11T21:31:53.642Z,9.00
2023-02-11T21:35:02.381Z,9.15
2023-02-11T21:38:28.636Z,9.14
2023-02-11T21:41:56.044Z,9.21
2023-02-11T21:45:21.761Z,9.05
2023-02-11T21:48:27.653Z,9.26
2023-02-11T21:51:35.404Z,9.32
2023-02-11T21:54:51.972Z,9.67
2023-02-11T21:58:18.219Z,9.67
2023-02-11T22:01:35.402Z,9.93
2023-02-11T22:04:51.225Z,10.16
2023-02-11T22:07:58.842Z,10.12
2023-02-11T22:11:09.967Z,10.14
2023-02-11T22:14:16.127Z,10.62
2023-02-11T22:17:24.790Z,10.93
2023-02-11T22:20:59.684Z,11.56
2023-02-11T22:24:15.440Z,11.35
2023-02-11T22:27:21.020Z,11.26
2023-02-11T22:30:26.665Z,11.53
2023-02-11T22:33:34.826Z,11.27
2023-02-11T22:36:47.032Z,11.06
2023-02-11T22:39:52.639Z,11.08
2023-02-11T22:42:58.129Z,11.04
2023-02-11T22:46:23.743Z,10.87
2023-02-11T22:49:49.611Z,10.63
2023-02-11T22:52:55.317Z,10.41
2023-02-11T22:56:04.567Z,10.53
2023-02-11T22:59:14.471Z,10.58
2023-02-11T23:02:22.451Z,10.39
2023-02-11T23:05:46.854Z,10.66
2023-02-11T23:08:55.328Z,10.55
2023-02-11T23:12:20.944Z,10.68
2023-02-11T23:15:47.667Z,11.31
2023-02-11T23:19:14.483Z,11.36
2023-02-11T23:22:42.389Z,11.23
2023-02-11T23:26:10.360Z,11.26
2023-02-11T23:29:36.028Z,10.87
2023-02-11T23:33:01.551Z,10.77
2023-02-11T23:36:27.311Z,10.70
2023-02-11T23:39:53.052Z,10.84
2023-02-11T23:43:18.935Z,10.84
2023-02-11T23:47:31.875Z,11.16
2023-02-11T23:50:32.715Z,11.35
2023-02-11T23:53:58.385Z,11.01
2023-02-11T23:57:24.372Z,10.47
